Time;durP1;ratioP1;P1;durP2;ratioP2;P2;SDS_P1;SDS_P2;PMS_P1;PMS_P2;Temp;Humidity;BMP_temperature;BMP_pressure;BME280_temperature;BME280_humidity;BME280_pressure;Samples;Min_cycle;Max_cycle;Signal;HPM_P1;HPM_P2
2021/05/28 00:01:45;;;;;;;6.00;5.50;;;13.40;99.90;;;;;;5073588;28;20257;-49
2021/05/28 00:04:11;;;;;;;7.10;6.40;;;13.40;99.90;;;;;;5073474;28;20689;-50
2021/05/28 00:06:36;;;;;;;6.30;5.70;;;13.50;99.90;;;;;;5054685;28;20193;-49
2021/05/28 00:09:04;;;;;;;7.77;7.10;;;13.70;99.90;;;;;;5072820;28;20158;-49
2021/05/28 00:11:30;;;;;;;5.27;4.87;;;13.70;99.90;;;;;;5073171;28;20217;-52
2021/05/28 00:13:56;;;;;;;7.97;6.40;;;13.80;99.90;;;;;;5072424;28;20423;-52
2021/05/28 00:16:21;;;;;;;7.47;6.87;;;13.90;99.90;;;;;;5073492;28;20174;-52
2021/05/28 00:18:47;;;;;;;7.80;7.10;;;13.80;99.90;;;;;;5073399;28;20204;-50
2021/05/28 00:21:12;;;;;;;7.27;6.67;;;13.80;99.90;;;;;;5072892;28;20187;-51
2021/05/28 00:23:38;;;;;;;7.40;6.80;;;13.80;99.90;;;;;;5073145;28;20174;-51
2021/05/28 00:26:03;;;;;;;9.00;7.50;;;13.80;99.90;;;;;;5073075;28;20202;-50
2021/05/28 00:28:29;;;;;;;9.30;8.40;;;13.80;99.90;;;;;;5075942;28;20172;-53
2021/05/28 00:30:55;;;;;;;9.10;8.17;;;13.80;99.90;;;;;;5076851;28;20200;-50
2021/05/28 00:33:20;;;;;;;7.43;6.70;;;13.70;99.90;;;;;;5076868;28;20167;-51
2021/05/28 00:35:46;;;;;;;9.03;8.20;;;13.50;99.90;;;;;;5076652;28;20613;-50
2021/05/28 00:38:11;;;;;;;7.63;6.93;;;13.40;99.90;;;;;;5075658;28;20212;-53
2021/05/28 00:40:37;;;;;;;7.80;7.03;;;13.40;99.90;;;;;;5077112;28;20488;-50
2021/05/28 00:43:03;;;;;;;8.53;7.83;;;13.40;99.90;;;;;;5076203;28;20185;-50
2021/05/28 00:45:28;;;;;;;9.93;8.97;;;13.30;99.90;;;;;;5075904;28;20253;-51
2021/05/28 00:47:54;;;;;;;9.63;8.40;;;13.30;99.90;;;;;;5076151;28;20699;-51
2021/05/28 00:50:20;;;;;;;8.47;7.17;;;13.40;99.90;;;;;;5076506;28;20165;-51
2021/05/28 00:52:52;;;;;;;8.43;7.67;;;13.60;99.90;;;;;;5076659;28;20194;-50
2021/05/28 00:55:18;;;;;;;9.50;8.70;;;13.70;99.90;;;;;;5076400;28;20672;-52
2021/05/28 00:57:43;;;;;;;7.53;6.83;;;13.60;99.90;;;;;;5076333;28;20488;-51
2021/05/28 01:00:10;;;;;;;9.63;8.63;;;13.60;99.90;;;;;;5076707;28;20496;-51
2021/05/28 01:02:35;;;;;;;7.50;6.50;;;13.70;99.90;;;;;;5075610;28;20732;-53
2021/05/28 01:05:01;;;;;;;7.00;6.30;;;13.90;99.90;;;;;;5075902;28;20443;-49
2021/05/28 01:07:27;;;;;;;7.80;7.10;;;13.80;99.90;;;;;;5076309;28;20173;-50
2021/05/28 01:09:52;;;;;;;6.60;5.77;;;13.80;99.90;;;;;;5075032;28;20436;-52
2021/05/28 01:12:18;;;;;;;6.27;5.70;;;13.80;99.90;;;;;;5075996;28;20277;-51
2021/05/28 01:14:44;;;;;;;5.90;5.40;;;13.80;99.90;;;;;;5076204;28;20169;-51
2021/05/28 01:17:10;;;;;;;5.20;4.70;;;13.90;99.90;;;;;;5076372;28;20197;-50
2021/05/28 01:19:35;;;;;;;5.93;5.33;;;13.70;99.90;;;;;;5076018;28;20531;-50
2021/05/28 01:22:06;;;;;;;5.50;5.00;;;13.80;99.90;;;;;;5076073;28;20416;-54
2021/05/28 01:24:32;;;;;;;4.90;4.50;;;13.90;99.90;;;;;;5075984;28;20627;-51
2021/05/28 01:26:58;;;;;;;5.60;5.10;;;14.10;99.90;;;;;;5075827;28;20454;-50
2021/05/28 01:29:24;;;;;;;5.60;5.00;;;14.00;99.90;;;;;;5074900;28;20416;-53
2021/05/28 01:31:49;;;;;;;5.30;4.80;;;13.80;99.90;;;;;;5074999;28;20421;-50
2021/05/28 01:34:15;;;;;;;5.10;4.60;;;13.90;99.90;;;;;;5075611;28;20215;-51
2021/05/28 01:36:41;;;;;;;5.33;4.80;;;14.00;99.90;;;;;;5075330;28;20255;-53
2021/05/28 01:39:06;;;;;;;5.10;4.60;;;14.20;99.90;;;;;;5074652;28;20240;-50
2021/05/28 01:41:32;;;;;;;5.30;4.80;;;14.20;99.90;;;;;;5100105;22;20222;-56
2021/05/28 01:43:58;;;;;;;4.23;3.90;;;14.20;99.90;;;;;;5075834;28;20239;-55
2021/05/28 01:46:24;;;;;;;5.47;4.40;;;14.20;99.90;;;;;;5074528;28;20196;-57
2021/05/28 01:48:50;;;;;;;4.40;4.00;;;14.20;99.90;;;;;;5075274;28;20204;-55
2021/05/28 01:51:16;;;;;;;4.13;3.83;;;14.30;99.90;;;;;;5074746;28;20401;-57
2021/05/28 01:53:42;;;;;;;3.93;3.60;;;14.30;99.90;;;;;;5074201;28;20908;-56
2021/05/28 01:56:08;;;;;;;4.20;3.90;;;14.30;99.90;;;;;;5074685;28;20640;-56
2021/05/28 01:58:33;;;;;;;3.87;3.57;;;14.20;99.90;;;;;;5075176;28;20495;-52
2021/05/28 02:00:59;;;;;;;9.30;4.50;;;14.30;99.90;;;;;;5074908;28;20235;-55
2021/05/28 02:03:25;;;;;;;4.00;3.60;;;14.30;99.90;;;;;;5074805;28;20198;-55
2021/05/28 02:05:51;;;;;;;4.30;3.67;;;14.30;99.90;;;;;;5056749;28;20194;-53
2021/05/28 02:08:17;;;;;;;4.07;3.70;;;14.30;99.90;;;;;;5074504;28;20412;-56
2021/05/28 02:10:44;;;;;;;3.23;3.00;;;14.20;99.90;;;;;;5067935;28;20406;-57
2021/05/28 02:13:10;;;;;;;3.77;3.47;;;14.10;99.90;;;;;;5058471;28;20221;-55
2021/05/28 02:15:36;;;;;;;3.93;3.60;;;14.10;99.90;;;;;;5074382;28;20885;-55
2021/05/28 02:18:01;;;;;;;4.17;3.77;;;14.20;99.90;;;;;;5074584;28;20392;-56
2021/05/28 02:20:27;;;;;;;3.80;3.50;;;14.10;99.90;;;;;;5074618;28;20254;-56
2021/05/28 02:22:53;;;;;;;4.77;4.03;;;14.00;99.90;;;;;;5074386;28;20538;-57
2021/05/28 02:25:19;;;;;;;3.43;3.10;;;13.90;99.90;;;;;;5074675;28;20591;-57
2021/05/28 02:27:45;;;;;;;4.37;3.50;;;13.90;99.90;;;;;;5074306;28;20535;-55
2021/05/28 02:30:12;;;;;;;4.80;3.37;;;13.90;99.90;;;;;;5073204;28;20425;-57
2021/05/28 02:32:38;;;;;;;6.30;2.67;;;13.90;99.90;;;;;;5074457;28;20952;-57
2021/05/28 02:35:06;;;;;;;5.73;3.50;;;13.90;99.90;;;;;;5074518;28;20416;-55
2021/05/28 02:37:32;;;;;;;4.27;3.37;;;14.00;99.90;;;;;;5048087;28;20421;-57
2021/05/28 02:39:58;;;;;;;4.20;3.90;;;14.00;99.90;;;;;;5048672;28;20997;-57
2021/05/28 02:42:24;;;;;;;4.90;3.60;;;14.10;99.90;;;;;;5054537;28;20648;-55
2021/05/28 02:44:52;;;;;;;4.30;3.90;;;14.00;99.90;;;;;;5070340;28;20170;-56
2021/05/28 02:47:17;;;;;;;5.27;3.90;;;14.00;99.90;;;;;;5073967;28;20444;-56
2021/05/28 02:49:43;;;;;;;4.17;3.83;;;13.90;99.90;;;;;;5073160;28;20404;-57
2021/05/28 02:52:09;;;;;;;4.47;3.40;;;13.90;99.90;;;;;;5074404;28;20197;-57
2021/05/28 02:54:34;;;;;;;3.63;3.33;;;13.90;99.90;;;;;;5073609;28;20162;-56
2021/05/28 02:57:00;;;;;;;3.10;2.90;;;13.80;99.90;;;;;;5073860;28;20249;-57
2021/05/28 02:59:25;;;;;;;3.50;3.20;;;13.80;99.90;;;;;;5073452;28;20246;-57
2021/05/28 03:01:51;;;;;;;3.60;3.30;;;13.80;99.90;;;;;;5073476;28;20269;-56
2021/05/28 03:04:17;;;;;;;4.03;3.33;;;13.70;99.90;;;;;;5073891;28;20571;-56
2021/05/28 03:06:43;;;;;;;3.97;3.50;;;13.70;99.90;;;;;;5073701;28;20716;-56
2021/05/28 03:09:09;;;;;;;3.50;3.20;;;13.70;99.90;;;;;;5073672;28;20408;-55
2021/05/28 03:11:35;;;;;;;4.83;3.63;;;13.80;99.90;;;;;;5072212;28;20186;-56
2021/05/28 03:14:01;;;;;;;5.80;4.13;;;13.80;99.90;;;;;;5073451;28;20169;-56
2021/05/28 03:16:26;;;;;;;4.60;4.20;;;13.70;99.90;;;;;;5073477;28;20174;-52
2021/05/28 03:19:01;;;;;;;3.87;3.20;;;13.70;99.90;;;;;;5073393;28;20905;-50
2021/05/28 03:23:56;;;;;;;3.77;3.40;;;13.30;99.90;;;;;;5072198;28;20975;-53
2021/05/28 03:26:23;;;;;;;4.03;3.73;;;13.50;99.90;;;;;;5073529;28;20489;-55
2021/05/28 03:28:48;;;;;;;4.17;3.77;;;13.40;99.90;;;;;;5072245;28;20896;-55
2021/05/28 03:31:15;;;;;;;5.60;4.17;;;13.40;99.90;;;;;;5072840;28;20443;-55
2021/05/28 03:33:41;;;;;;;4.30;3.97;;;13.30;99.90;;;;;;5073193;28;20257;-56
2021/05/28 03:36:07;;;;;;;4.23;3.50;;;13.20;99.90;;;;;;5072436;28;20416;-56
2021/05/28 03:38:34;;;;;;;3.47;3.17;;;13.20;99.90;;;;;;5055052;28;20526;-55
2021/05/28 03:41:00;;;;;;;4.37;3.97;;;13.20;99.90;;;;;;5073439;28;20408;-56
2021/05/28 03:43:26;;;;;;;3.97;3.67;;;13.10;99.90;;;;;;5072955;28;20447;-54
2021/05/28 03:45:51;;;;;;;3.40;3.10;;;13.00;99.90;;;;;;5072719;28;20439;-56
2021/05/28 03:48:17;;;;;;;3.73;3.43;;;13.10;99.90;;;;;;5073095;28;20504;-54
2021/05/28 03:50:43;;;;;;;4.03;3.63;;;13.00;99.90;;;;;;5073084;28;20177;-53
2021/05/28 03:53:08;;;;;;;4.00;3.70;;;13.00;99.90;;;;;;5073043;28;20555;-56
2021/05/28 03:55:34;;;;;;;4.10;3.67;;;12.90;99.90;;;;;;5072499;28;20538;-56
2021/05/28 03:58:00;;;;;;;3.63;2.80;;;12.90;99.90;;;;;;5072701;28;20536;-54
2021/05/28 04:00:25;;;;;;;3.40;3.10;;;12.90;99.90;;;;;;5072648;28;20174;-52
2021/05/28 04:02:52;;;;;;;4.03;3.33;;;12.90;99.90;;;;;;5076988;28;20228;-50
2021/05/28 04:05:18;;;;;;;4.03;3.70;;;12.90;99.90;;;;;;5077225;28;20952;-51
2021/05/28 04:07:44;;;;;;;3.57;3.27;;;12.90;99.90;;;;;;5075948;28;20412;-54
2021/05/28 04:10:10;;;;;;;4.17;3.77;;;12.90;99.90;;;;;;5077522;28;20162;-55
2021/05/28 04:12:36;;;;;;;3.87;3.50;;;12.80;99.90;;;;;;5076845;28;20431;-54
2021/05/28 04:15:03;;;;;;;6.80;4.03;;;12.80;99.90;;;;;;5077084;28;20403;-56
2021/05/28 04:17:28;;;;;;;4.03;3.73;;;12.80;99.90;;;;;;5076763;28;20654;-56
2021/05/28 04:19:54;;;;;;;4.67;4.27;;;12.80;99.90;;;;;;5077051;28;20400;-53
2021/05/28 04:22:20;;;;;;;4.00;3.60;;;12.70;99.90;;;;;;5076345;28;20670;-55
2021/05/28 04:24:45;;;;;;;3.60;3.30;;;12.70;99.90;;;;;;5076404;28;20406;-56
2021/05/28 04:27:12;;;;;;;4.23;3.83;;;12.80;99.90;;;;;;5077046;28;20165;-53
2021/05/28 04:29:37;;;;;;;4.43;4.00;;;12.90;99.90;;;;;;5077033;28;20185;-55
2021/05/28 04:32:03;;;;;;;3.87;3.57;;;12.90;99.90;;;;;;5076738;28;20421;-56
2021/05/28 04:34:29;;;;;;;5.73;3.63;;;12.80;99.90;;;;;;5076528;28;20158;-56
2021/05/28 04:36:54;;;;;;;3.73;3.33;;;12.80;99.90;;;;;;5075783;28;20753;-52
2021/05/28 04:39:20;;;;;;;3.90;3.60;;;12.80;99.90;;;;;;5076121;28;20623;-56
2021/05/28 04:41:46;;;;;;;5.63;5.13;;;12.90;99.90;;;;;;5076330;28;20236;-55
2021/05/28 04:44:12;;;;;;;7.13;6.43;;;13.00;99.90;;;;;;5076562;28;20179;-54
2021/05/28 04:46:37;;;;;;;5.80;4.50;;;13.00;99.90;;;;;;5076397;28;20932;-56
2021/05/28 04:49:03;;;;;;;6.70;6.00;;;13.10;99.90;;;;;;5076416;28;20201;-53
2021/05/28 04:51:28;;;;;;;7.10;6.40;;;13.20;99.90;;;;;;5075740;28;20200;-55
2021/05/28 04:53:54;;;;;;;9.17;6.50;;;13.20;99.90;;;;;;5075863;28;20162;-53
2021/05/28 04:56:20;;;;;;;7.30;6.60;;;13.00;99.90;;;;;;5076227;28;20173;-56
2021/05/28 04:58:45;;;;;;;6.77;6.17;;;13.10;99.90;;;;;;5075986;28;20259;-56
2021/05/28 05:01:11;;;;;;;7.43;6.70;;;13.30;99.90;;;;;;5076273;28;20649;-56
2021/05/28 05:03:37;;;;;;;8.97;6.53;;;13.30;99.90;;;;;;5075975;28;20164;-55
2021/05/28 05:06:03;;;;;;;7.60;6.77;;;13.30;99.90;;;;;;5075773;28;20186;-55
2021/05/28 05:08:30;;;;;;;7.50;6.50;;;13.40;99.90;;;;;;5074471;28;20419;-56
2021/05/28 05:10:57;;;;;;;7.10;5.90;;;13.40;99.90;;;;;;5075875;28;20400;-56
2021/05/28 05:13:22;;;;;;;10.40;8.07;;;13.50;99.90;;;;;;5074773;28;20474;-55
2021/05/28 05:15:48;;;;;;;9.93;6.90;;;13.60;99.90;;;;;;5075605;28;20413;-56
2021/05/28 05:18:14;;;;;;;10.70;7.57;;;13.40;99.90;;;;;;5075658;28;20180;-56
2021/05/28 05:20:39;;;;;;;8.43;6.50;;;13.30;99.90;;;;;;5075553;28;20228;-55
2021/05/28 05:23:05;;;;;;;8.83;7.90;;;13.50;99.90;;;;;;5075309;28;20674;-56
2021/05/28 05:25:31;;;;;;;11.10;7.20;;;13.60;99.90;;;;;;5075568;28;20618;-57
2021/05/28 05:27:57;;;;;;;8.63;7.40;;;13.80;99.90;;;;;;5075143;28;20919;-56
2021/05/28 05:30:23;;;;;;;9.87;7.30;;;13.70;99.90;;;;;;5075413;28;20388;-54
2021/05/28 05:32:49;;;;;;;12.20;8.37;;;13.70;99.90;;;;;;5068711;28;20204;-56
2021/05/28 05:35:14;;;;;;;8.47;7.67;;;13.80;99.90;;;;;;5055568;28;20178;-57
2021/05/28 05:37:40;;;;;;;10.63;7.43;;;13.90;99.90;;;;;;5066355;28;20178;-57
2021/05/28 05:40:07;;;;;;;9.57;8.50;;;13.80;99.90;;;;;;5074824;28;20183;-57
2021/05/28 05:42:36;;;;;;;11.13;8.67;;;13.70;99.90;;;;;;5074431;28;20209;-56
2021/05/28 05:45:03;;;;;;;7.70;6.90;;;13.70;99.90;;;;;;5075309;28;20408;-57
2021/05/28 05:47:29;;;;;;;9.07;7.80;;;13.80;99.90;;;;;;5074155;28;20405;-56
2021/05/28 05:49:54;;;;;;;9.40;7.50;;;14.00;99.90;;;;;;5075044;28;20416;-56
2021/05/28 05:52:20;;;;;;;12.40;7.07;;;14.00;99.90;;;;;;5074668;28;20197;-56
2021/05/28 05:54:46;;;;;;;11.33;7.90;;;14.20;99.90;;;;;;5074993;28;20534;-55
2021/05/28 05:57:12;;;;;;;12.43;7.90;;;14.10;99.90;;;;;;5074706;28;20255;-56
2021/05/28 05:59:38;;;;;;;8.13;7.20;;;14.30;99.90;;;;;;5074058;28;20444;-54
2021/05/28 06:02:04;;;;;;;8.63;7.40;;;14.30;99.90;;;;;;5074096;28;20294;-53
2021/05/28 06:04:29;;;;;;;11.27;8.20;;;14.30;99.90;;;;;;5074826;28;20166;-54
2021/05/28 06:06:55;;;;;;;9.67;8.43;;;14.40;99.90;;;;;;5074819;28;20857;-56
2021/05/28 06:09:20;;;;;;;13.13;8.50;;;14.40;99.90;;;;;;5074193;28;20245;-53
2021/05/28 06:11:46;;;;;;;8.83;7.43;;;14.30;99.90;;;;;;5074602;28;20186;-57
2021/05/28 06:14:11;;;;;;;8.20;7.40;;;14.20;99.90;;;;;;5074104;28;20162;-54
2021/05/28 06:16:37;;;;;;;8.83;7.47;;;14.30;99.90;;;;;;5073730;28;20170;-56
2021/05/28 06:19:03;;;;;;;10.50;7.90;;;14.20;99.90;;;;;;5074319;28;20174;-56
2021/05/28 06:21:31;;;;;;;7.80;7.00;;;14.40;99.90;;;;;;5074179;28;20182;-54
2021/05/28 06:23:57;;;;;;;8.23;7.43;;;14.80;99.90;;;;;;5072191;28;20720;-57
2021/05/28 06:26:22;;;;;;;10.10;7.90;;;15.00;99.90;;;;;;5074124;28;20511;-57
2021/05/28 06:28:48;;;;;;;8.20;7.40;;;15.00;99.90;;;;;;5073987;28;20163;-56
2021/05/28 06:31:13;;;;;;;8.67;7.87;;;15.00;99.90;;;;;;5073664;28;20533;-53
2021/05/28 06:33:39;;;;;;;10.07;8.37;;;15.00;99.90;;;;;;5073969;28;20167;-52
2021/05/28 06:36:05;;;;;;;9.53;7.50;;;15.00;99.90;;;;;;5074335;28;20170;-55
2021/05/28 06:38:31;;;;;;;9.57;8.60;;;15.20;99.90;;;;;;5073882;28;20538;-55
2021/05/28 06:40:56;;;;;;;9.57;8.57;;;15.30;99.90;;;;;;5074608;28;20417;-51
2021/05/28 06:43:22;;;;;;;8.07;7.23;;;14.80;99.90;;;;;;5073562;28;20276;-56
2021/05/28 06:45:47;;;;;;;10.10;8.73;;;15.00;99.90;;;;;;5073624;28;20298;-56
2021/05/28 06:48:13;;;;;;;12.30;8.83;;;15.20;99.90;;;;;;5072227;28;20203;-50
2021/05/28 06:50:41;;;;;;;8.87;7.97;;;15.10;99.90;;;;;;5073877;28;20639;-51
2021/05/28 06:53:10;;;;;;;9.50;8.00;;;15.20;99.90;;;;;;5073513;28;20675;-54
2021/05/28 06:55:36;;;;;;;10.20;8.00;;;15.00;99.90;;;;;;5073921;28;20842;-56
2021/05/28 06:58:02;;;;;;;8.80;7.40;;;15.00;99.90;;;;;;5072323;28;20451;-56
2021/05/28 07:00:28;;;;;;;9.37;8.00;;;15.10;99.90;;;;;;5073114;28;20400;-51
2021/05/28 07:02:55;;;;;;;13.87;8.20;;;15.30;99.90;;;;;;5073581;28;20262;-51
2021/05/28 07:05:23;;;;;;;8.67;7.87;;;15.30;99.90;;;;;;5073414;28;20196;-56
2021/05/28 07:07:49;;;;;;;10.27;8.63;;;15.60;99.90;;;;;;5073020;28;20422;-55
2021/05/28 07:10:15;;;;;;;8.80;8.00;;;15.70;99.90;;;;;;5073583;28;20405;-52
2021/05/28 07:12:40;;;;;;;9.73;7.73;;;15.70;99.90;;;;;;5072279;28;20581;-56
2021/05/28 07:15:07;;;;;;;9.87;8.80;;;15.50;99.90;;;;;;5073004;28;20590;-52
2021/05/28 07:17:34;;;;;;;9.57;7.83;;;15.40;99.90;;;;;;5073164;28;20174;-56
2021/05/28 07:19:59;;;;;;;9.07;7.73;;;15.50;99.90;;;;;;5073319;28;20455;-52
2021/05/28 07:22:25;;;;;;;9.53;8.63;;;15.60;99.90;;;;;;5072994;28;20435;-52
2021/05/28 07:24:51;;;;;;;11.27;8.40;;;15.40;99.90;;;;;;5072025;28;20172;-54
2021/05/28 07:27:16;;;;;;;9.97;8.40;;;15.50;99.90;;;;;;5073440;28;20179;-53
2021/05/28 07:29:42;;;;;;;8.90;8.07;;;15.70;99.90;;;;;;5071699;28;20167;-55
2021/05/28 07:32:08;;;;;;;9.83;8.63;;;15.30;99.90;;;;;;5073299;28;20192;-55
2021/05/28 07:34:34;;;;;;;9.10;8.30;;;15.50;99.90;;;;;;5073217;28;20169;-55
2021/05/28 07:37:00;;;;;;;8.43;6.90;;;15.80;99.90;;;;;;5072903;28;20184;-56
2021/05/28 07:39:25;;;;;;;11.87;9.37;;;15.90;99.90;;;;;;5073115;28;21010;-55
2021/05/28 07:41:51;;;;;;;10.07;7.80;;;16.00;99.90;;;;;;5097507;22;20276;-58
2021/05/28 07:44:17;;;;;;;11.00;8.50;;;16.00;99.90;;;;;;5072026;28;20167;-53
2021/05/28 07:46:45;;;;;;;12.43;7.63;;;15.90;99.90;;;;;;5073502;28;20200;-59
2021/05/28 07:49:15;;;;;;;9.10;8.30;;;16.20;99.90;;;;;;5073645;28;20271;-57
2021/05/28 07:51:41;;;;;;;8.77;7.93;;;16.00;99.90;;;;;;5073581;28;21050;-58
2021/05/28 07:54:07;;;;;;;9.57;8.30;;;15.80;99.90;;;;;;5073522;28;20398;-57
2021/05/28 07:56:34;;;;;;;9.17;7.40;;;15.90;99.90;;;;;;5073458;28;20414;-58
2021/05/28 07:59:00;;;;;;;9.80;8.10;;;15.90;99.90;;;;;;5072789;28;20457;-57
2021/05/28 08:01:27;;;;;;;6.90;6.30;;;16.10;99.90;;;;;;5073082;28;20662;-60
2021/05/28 08:03:53;;;;;;;10.17;7.90;;;16.40;99.90;;;;;;5073019;28;20425;-59
2021/05/28 08:06:19;;;;;;;11.07;7.47;;;16.20;99.90;;;;;;5073072;28;20798;-60
2021/05/28 08:08:44;;;;;;;7.37;6.77;;;16.50;99.90;;;;;;5073204;28;20209;-59
2021/05/28 08:11:10;;;;;;;8.13;7.20;;;16.60;99.90;;;;;;5072406;28;20530;-56
2021/05/28 08:13:36;;;;;;;7.90;7.07;;;16.70;99.90;;;;;;5072851;28;20187;-57
2021/05/28 08:16:03;;;;;;;8.30;6.50;;;17.10;99.90;;;;;;5073394;28;20167;-57
2021/05/28 08:18:29;;;;;;;8.30;6.67;;;17.10;99.90;;;;;;5073208;28;20408;-57
2021/05/28 08:20:56;;;;;;;6.70;5.50;;;16.90;99.90;;;;;;5073121;28;20406;-53
2021/05/28 08:23:21;;;;;;;7.30;6.10;;;17.00;99.90;;;;;;5072310;28;20815;-55
2021/05/28 08:25:49;;;;;;;5.63;5.13;;;17.10;99.90;;;;;;5065581;28;20454;-56
2021/05/28 08:28:18;;;;;;;7.77;5.97;;;17.30;99.90;;;;;;5056757;28;20252;-53
2021/05/28 08:30:45;;;;;;;5.90;5.30;;;17.70;99.90;;;;;;5073454;28;20398;-54
2021/05/28 08:33:12;;;;;;;6.00;5.40;;;17.20;99.90;;;;;;5073172;28;20425;-56
2021/05/28 08:35:40;;;;;;;8.43;6.27;;;17.20;99.90;;;;;;5073325;28;20410;-55
2021/05/28 08:38:06;;;;;;;8.07;6.57;;;17.20;99.90;;;;;;5073274;28;20425;-56
2021/05/28 08:40:32;;;;;;;6.53;5.93;;;17.00;99.90;;;;;;5072844;28;20413;-52
2021/05/28 08:42:59;;;;;;;6.60;5.50;;;16.70;99.90;;;;;;5072678;28;20449;-54
2021/05/28 08:45:27;;;;;;;5.43;4.93;;;16.80;99.90;;;;;;5072684;28;20500;-56
2021/05/28 08:47:53;;;;;;;6.30;5.70;;;17.10;99.90;;;;;;5074361;28;20405;-53
2021/05/28 08:50:24;;;;;;;6.27;5.67;;;17.70;99.90;;;;;;5076885;28;20764;-55
2021/05/28 08:52:50;;;;;;;7.37;6.30;;;17.80;99.90;;;;;;5077193;28;20187;-56
2021/05/28 08:55:16;;;;;;;8.80;5.43;;;17.90;99.90;;;;;;5076462;28;20488;-56
2021/05/28 08:57:41;;;;;;;6.90;6.30;;;17.90;99.90;;;;;;5076932;28;20170;-55
2021/05/28 09:00:07;;;;;;;6.67;5.50;;;17.90;99.90;;;;;;5076308;28;20181;-55
2021/05/28 09:02:33;;;;;;;7.00;6.30;;;17.90;99.90;;;;;;5076567;28;20192;-54
2021/05/28 09:05:05;;;;;;;7.07;6.00;;;17.70;99.90;;;;;;5076520;28;20404;-54
2021/05/28 09:07:31;;;;;;;7.00;6.00;;;18.00;99.90;;;;;;5058647;28;20176;-55
2021/05/28 09:09:57;;;;;;;6.20;5.40;;;18.10;99.90;;;;;;5075938;28;20825;-55
2021/05/28 09:12:27;;;;;;;5.63;4.90;;;18.20;99.90;;;;;;5076267;28;20188;-54
2021/05/28 09:14:53;;;;;;;6.90;5.87;;;18.10;99.90;;;;;;5075710;28;20177;-56
2021/05/28 09:17:19;;;;;;;5.80;5.20;;;17.70;99.90;;;;;;5077052;28;20398;-53
2021/05/28 09:19:54;;;;;;;8.60;5.03;;;17.30;99.90;;;;;;5076183;28;20493;-53
2021/05/28 09:22:20;;;;;;;6.03;5.27;;;17.40;99.90;;;;;;5075294;28;20424;-59
2021/05/28 09:24:47;;;;;;;5.20;4.70;;;17.20;99.90;;;;;;5076370;28;20971;-56
2021/05/28 09:27:27;;;;;;;7.10;5.40;;;17.00;99.90;;;;;;5076335;28;20450;-56
2021/05/28 09:30:17;;;;;;;6.30;5.70;;;16.90;99.90;;;;;;5074797;28;20427;-56
2021/05/28 09:32:46;;;;;;;5.13;4.57;;;16.80;99.90;;;;;;5075679;28;20488;-57
2021/05/28 09:35:14;;;;;;;8.07;5.23;;;16.70;99.90;;;;;;5076067;28;20408;-56
2021/05/28 09:37:48;;;;;;;7.90;6.63;;;16.50;99.90;;;;;;5074604;28;20449;-56
2021/05/28 09:40:22;;;;;;;5.63;5.13;;;16.40;99.90;;;;;;5076481;28;20777;-56
2021/05/28 09:42:48;;;;;;;8.50;5.90;;;16.60;99.90;;;;;;5075998;28;20497;-57
2021/05/28 09:45:26;;;;;;;6.30;5.70;;;16.80;99.90;;;;;;5074731;28;20462;-55
2021/05/28 09:47:52;;;;;;;6.00;4.83;;;16.70;99.90;;;;;;5075578;28;20744;-57
2021/05/28 09:50:18;;;;;;;5.97;5.30;;;16.90;99.90;;;;;;5074856;28;20416;-57
2021/05/28 09:52:44;;;;;;;5.87;5.37;;;16.90;99.90;;;;;;5075215;28;20194;-56
2021/05/28 09:55:16;;;;;;;6.73;6.03;;;16.90;99.90;;;;;;5076081;28;20493;-56
2021/05/28 09:57:45;;;;;;;6.80;6.10;;;16.80;99.90;;;;;;5075446;28;20214;-56
2021/05/28 10:00:36;;;;;;;7.53;6.13;;;16.60;99.90;;;;;;5074973;28;20453;-56
2021/05/28 10:03:12;;;;;;;6.43;5.50;;;16.60;99.90;;;;;;5076079;28;20415;-59
2021/05/28 10:05:39;;;;;;;6.70;6.00;;;16.70;99.90;;;;;;5074454;28;20446;-59
2021/05/28 10:08:10;;;;;;;6.70;6.10;;;16.90;99.90;;;;;;5075092;28;20407;-59
2021/05/28 10:10:37;;;;;;;6.63;6.03;;;16.70;99.90;;;;;;5075599;28;20411;-57
2021/05/28 10:13:10;;;;;;;6.20;5.60;;;17.00;99.90;;;;;;5074041;28;20513;-56
2021/05/28 10:15:37;;;;;;;5.10;4.50;;;17.20;99.90;;;;;;5075312;28;20388;-56
2021/05/28 10:18:03;;;;;;;4.80;4.30;;;17.00;99.90;;;;;;5075280;28;20405;-57
2021/05/28 10:20:29;;;;;;;6.60;5.30;;;17.40;99.90;;;;;;5075225;28;20456;-56
2021/05/28 10:22:55;;;;;;;6.50;5.43;;;17.60;99.90;;;;;;5075141;28;20230;-56
2021/05/28 10:25:20;;;;;;;5.57;5.07;;;17.90;99.40;;;;;;5074865;28;20240;-55
2021/05/28 10:28:01;;;;;;;5.90;5.40;;;18.30;99.60;;;;;;5074927;28;20641;-56
2021/05/28 10:30:34;;;;;;;5.70;5.20;;;18.40;98.80;;;;;;5074561;28;20594;-53
2021/05/28 10:33:25;;;;;;;6.70;5.00;;;18.80;98.10;;;;;;5074661;28;20416;-54
2021/05/28 10:35:54;;;;;;;5.43;4.70;;;18.90;97.50;;;;;;5074072;28;20423;-56
2021/05/28 10:38:41;;;;;;;5.50;5.00;;;18.70;98.90;;;;;;5074587;28;20404;-53
2021/05/28 10:41:06;;;;;;;5.97;5.23;;;18.60;97.40;;;;;;5074599;28;20407;-56
2021/05/28 10:43:38;;;;;;;4.90;4.20;;;18.80;97.50;;;;;;5074125;28;20452;-56
2021/05/28 10:46:05;;;;;;;4.87;4.47;;;18.70;97.30;;;;;;5074799;28;20193;-56
2021/05/28 10:48:43;;;;;;;5.90;5.40;;;18.50;97.80;;;;;;5073812;28;20779;-55
2021/05/28 10:51:14;;;;;;;5.70;5.20;;;18.60;97.80;;;;;;5075105;28;20404;-53
2021/05/28 10:53:41;;;;;;;5.53;5.03;;;18.30;98.70;;;;;;5074101;28;20427;-54
2021/05/28 10:56:09;;;;;;;4.63;4.23;;;18.50;98.00;;;;;;5073978;28;20943;-54
2021/05/28 10:58:54;;;;;;;7.77;5.03;;;18.70;97.20;;;;;;5074198;28;20411;-53
2021/05/28 11:01:34;;;;;;;4.90;4.40;;;18.90;96.20;;;;;;5074294;28;20428;-56
2021/05/28 11:04:01;;;;;;;4.90;4.40;;;18.90;96.20;;;;;;5074085;28;20456;-52
2021/05/28 11:06:28;;;;;;;6.50;4.57;;;19.10;95.50;;;;;;5074364;28;20452;-55
2021/05/28 11:09:06;;;;;;;4.57;4.03;;;18.70;94.80;;;;;;5074288;28;20397;-54
2021/05/28 11:11:41;;;;;;;5.70;4.73;;;18.80;95.00;;;;;;5072941;28;20420;-53
2021/05/28 11:14:18;;;;;;;3.63;3.40;;;19.30;94.50;;;;;;5073940;28;20411;-53
2021/05/28 11:16:53;;;;;;;4.50;3.30;;;19.40;93.80;;;;;;5072128;28;20424;-55
2021/05/28 11:19:32;;;;;;;3.60;3.30;;;19.50;92.90;;;;;;5062611;28;20916;-55
2021/05/28 11:22:01;;;;;;;4.30;3.37;;;19.50;92.50;;;;;;5054098;28;20413;-56
2021/05/28 11:24:45;;;;;;;4.93;3.50;;;19.30;93.10;;;;;;5064435;28;20761;-57
2021/05/28 11:27:34;;;;;;;4.60;3.90;;;19.50;93.20;;;;;;5074104;28;20505;-56
2021/05/28 11:30:03;;;;;;;4.20;3.27;;;19.30;92.70;;;;;;5073714;28;20458;-55
2021/05/28 11:32:54;;;;;;;3.30;2.80;;;19.10;93.50;;;;;;5072690;28;20436;-56
2021/05/28 11:35:20;;;;;;;3.50;3.20;;;18.90;93.60;;;;;;5073845;28;20392;-56
2021/05/28 11:38:05;;;;;;;5.07;3.50;;;18.80;93.50;;;;;;5073067;28;20400;-56
2021/05/28 11:40:39;;;;;;;4.43;3.70;;;18.90;93.80;;;;;;5073851;28;20814;-53
2021/05/28 11:43:23;;;;;;;3.03;2.83;;;19.20;92.90;;;;;;5073451;28;20781;-56
2021/05/28 11:45:51;;;;;;;3.13;2.83;;;21.10;90.90;;;;;;5073195;28;20435;-56
2021/05/28 11:48:19;;;;;;;3.30;2.70;;;22.80;86.50;;;;;;5073810;28;20793;-55
2021/05/28 11:50:48;;;;;;;3.47;3.17;;;24.10;81.10;;;;;;5073493;28;20412;-55
2021/05/28 11:53:14;;;;;;;3.33;3.03;;;25.20;76.60;;;;;;5073008;28;20515;-54
2021/05/28 11:55:51;;;;;;;3.57;3.20;;;25.50;74.60;;;;;;5073391;28;20436;-56
2021/05/28 11:58:19;;;;;;;3.07;2.87;;;25.70;74.40;;;;;;5072299;28;20173;-56
2021/05/28 12:00:50;;;;;;;2.77;2.43;;;25.50;72.70;;;;;;5072990;28;20466;-57
2021/05/28 12:03:16;;;;;;;2.30;2.10;;;23.70;72.10;;;;;;5073667;28;20455;-56
2021/05/28 12:05:44;;;;;;;3.50;3.20;;;23.60;73.40;;;;;;5072610;28;20452;-53
2021/05/28 12:08:21;;;;;;;2.90;2.70;;;22.80;74.50;;;;;;5073175;28;20900;-55
2021/05/28 12:10:51;;;;;;;4.53;3.20;;;22.50;78.00;;;;;;5073588;28;20403;-57
2021/05/28 12:13:19;;;;;;;3.37;2.80;;;23.20;75.40;;;;;;5072844;28;20425;-56
2021/05/28 12:15:53;;;;;;;4.10;2.27;;;24.30;76.10;;;;;;5072570;28;20802;-56
2021/05/28 12:18:24;;;;;;;3.90;2.83;;;24.80;74.00;;;;;;5073613;28;20395;-55
2021/05/28 12:21:13;;;;;;;4.30;2.93;;;25.50;69.40;;;;;;5072306;28;20431;-53
2021/05/28 12:23:42;;;;;;;4.13;3.00;;;24.30;69.40;;;;;;5076067;28;20435;-56
2021/05/28 12:26:16;;;;;;;3.57;2.93;;;23.60;71.80;;;;;;5076871;28;20526;-53
2021/05/28 12:28:48;;;;;;;3.50;2.90;;;23.60;72.50;;;;;;5076061;28;20836;-53
2021/05/28 12:31:14;;;;;;;6.73;2.37;;;23.00;73.40;;;;;;5077206;28;20403;-56
2021/05/28 12:33:49;;;;;;;3.40;2.47;;;23.70;70.00;;;;;;5075724;28;20916;-53
2021/05/28 12:36:16;;;;;;;2.60;2.00;;;24.00;67.30;;;;;;5077726;28;20474;-56
2021/05/28 12:38:50;;;;;;;2.60;2.40;;;25.70;65.10;;;;;;5076925;28;20842;-56
2021/05/28 12:41:21;;;;;;;2.50;2.10;;;26.90;61.80;;;;;;5077427;28;20403;-54
2021/05/28 12:43:48;;;;;;;2.70;2.50;;;27.30;62.50;;;;;;5076489;28;20448;-55
2021/05/28 12:46:18;;;;;;;4.03;2.77;;;28.60;60.30;;;;;;5075644;28;20577;-59
2021/05/28 12:48:54;;;;;;;5.30;3.00;;;27.80;61.30;;;;;;5076384;28;20392;-58
2021/05/28 12:51:27;;;;;;;3.13;2.70;;;27.80;59.50;;;;;;5076737;28;20949;-59